Terminal Aerodrome Forecast
Issued by NWS Kansas City/Pleasant Hill, MO

Home | Current Version | Previous Version | Text Only | Print | Product List | Glossary On
Versions: 1 2 3 4 5 6 7 8 9 10 11 12 13 14 15 16 17 18 19 20 21 22
000
FTUS43 KEAX 181300 AAA
TAFMCI
TAF AMD
KMCI 181338Z 1814/1912 12008KT P6SM FEW040 OVC120
     FM181500 16009KT 6SM -SHRA VCTS BKN040CB
      TEMPO 1815/1819 2SM -TSRA BKN025CB
     FM182200 14008KT P6SM BKN050
     FM190900 VRB03KT P6SM -SHRA VCTS BKN040CB=

USA.gov is the U.S. government's official web portal to all federal, state and local government web resources and services.